sensor_id;sensor_type;location;lat;lon;timestamp;temperature;humidity
51719;DHT22;37795;53.236;5.704;2023-05-15T00:00:17;10.30;77.10
51719;DHT22;37795;53.236;5.704;2023-05-15T00:02:43;10.30;77.30
51719;DHT22;37795;53.236;5.704;2023-05-15T00:05:10;10.30;77.40
51719;DHT22;37795;53.236;5.704;2023-05-15T00:07:37;10.30;77.20
51719;DHT22;37795;53.236;5.704;2023-05-15T00:10:02;10.20;77.30
51719;DHT22;37795;53.236;5.704;2023-05-15T00:12:28;10.20;77.30
51719;DHT22;37795;53.236;5.704;2023-05-15T00:14:54;10.20;77.30
51719;DHT22;37795;53.236;5.704;2023-05-15T00:17:20;10.20;77.30
51719;DHT22;37795;53.236;5.704;2023-05-15T00:19:46;10.20;77.50
51719;DHT22;37795;53.236;5.704;2023-05-15T00:22:11;10.30;77.60
51719;DHT22;37795;53.236;5.704;2023-05-15T00:24:37;10.30;77.60
51719;DHT22;37795;53.236;5.704;2023-05-15T00:27:03;10.30;77.60
51719;DHT22;37795;53.236;5.704;2023-05-15T00:29:28;10.30;77.80
51719;DHT22;37795;53.236;5.704;2023-05-15T00:31:54;10.30;78.10
51719;DHT22;37795;53.236;5.704;2023-05-15T00:34:20;10.20;78.10
51719;DHT22;37795;53.236;5.704;2023-05-15T00:36:47;10.20;78.60
51719;DHT22;37795;53.236;5.704;2023-05-15T00:39:13;10.20;78.50
51719;DHT22;37795;53.236;5.704;2023-05-15T00:41:40;10.10;78.50
51719;DHT22;37795;53.236;5.704;2023-05-15T00:44:06;10.00;78.80
51719;DHT22;37795;53.236;5.704;2023-05-15T00:46:34;9.90;78.90
51719;DHT22;37795;53.236;5.704;2023-05-15T00:49:02;10.00;79.40
51719;DHT22;37795;53.236;5.704;2023-05-15T00:51:29;9.90;79.20
51719;DHT22;37795;53.236;5.704;2023-05-15T00:53:54;9.90;79.10
51719;DHT22;37795;53.236;5.704;2023-05-15T00:56:21;9.90;78.70
51719;DHT22;37795;53.236;5.704;2023-05-15T00:58:48;9.80;78.00
51719;DHT22;37795;53.236;5.704;2023-05-15T01:01:15;9.70;77.30
51719;DHT22;37795;53.236;5.704;2023-05-15T01:03:42;9.60;77.00
51719;DHT22;37795;53.236;5.704;2023-05-15T01:06:08;9.60;76.90
51719;DHT22;37795;53.236;5.704;2023-05-15T01:11:11;9.80;77.10
51719;DHT22;37795;53.236;5.704;2023-05-15T01:13:37;9.90;77.20
51719;DHT22;37795;53.236;5.704;2023-05-15T01:16:04;9.90;77.00
51719;DHT22;37795;53.236;5.704;2023-05-15T01:18:30;9.80;77.00
51719;DHT22;37795;53.236;5.704;2023-05-15T01:26:54;10.20;77.70
51719;DHT22;37795;53.236;5.704;2023-05-15T01:31:56;10.20;78.00
51719;DHT22;37795;53.236;5.704;2023-05-15T01:34:28;10.20;78.30
51719;DHT22;37795;53.236;5.704;2023-05-15T01:36:58;10.30;78.70
51719;DHT22;37795;53.236;5.704;2023-05-15T01:39:28;10.30;78.60
51719;DHT22;37795;53.236;5.704;2023-05-15T01:42:23;10.40;78.80
51719;DHT22;37795;53.236;5.704;2023-05-15T01:44:55;10.50;78.90
51719;DHT22;37795;53.236;5.704;2023-05-15T01:47:30;10.50;79.10
51719;DHT22;37795;53.236;5.704;2023-05-15T01:49:59;10.50;79.00
51719;DHT22;37795;53.236;5.704;2023-05-15T01:52:31;10.60;79.00
51719;DHT22;37795;53.236;5.704;2023-05-15T01:55:00;10.60;78.80
51719;DHT22;37795;53.236;5.704;2023-05-15T01:57:27;10.60;78.70
51719;DHT22;37795;53.236;5.704;2023-05-15T01:59:54;10.70;78.50
51719;DHT22;37795;53.236;5.704;2023-05-15T02:02:22;10.70;77.90
51719;DHT22;37795;53.236;5.704;2023-05-15T02:04:48;10.70;77.10
51719;DHT22;37795;53.236;5.704;2023-05-15T02:07:15;10.70;76.60
51719;DHT22;37795;53.236;5.704;2023-05-15T02:09:41;10.70;76.50
51719;DHT22;37795;53.236;5.704;2023-05-15T02:12:08;10.70;76.00
51719;DHT22;37795;53.236;5.704;2023-05-15T02:14:36;10.80;75.60
51719;DHT22;37795;53.236;5.704;2023-05-15T02:17:03;10.90;74.90
51719;DHT22;37795;53.236;5.704;2023-05-15T02:19:29;10.80;74.90
51719;DHT22;37795;53.236;5.704;2023-05-15T02:21:54;10.70;74.90
51719;DHT22;37795;53.236;5.704;2023-05-15T02:24:20;10.70;75.10
51719;DHT22;37795;53.236;5.704;2023-05-15T02:26:56;10.60;74.90
51719;DHT22;37795;53.236;5.704;2023-05-15T02:35:18;10.40;75.00
51719;DHT22;37795;53.236;5.704;2023-05-15T02:37:50;10.30;75.10
51719;DHT22;37795;53.236;5.704;2023-05-15T02:40:18;10.20;75.00
51719;DHT22;37795;53.236;5.704;2023-05-15T02:42:45;10.10;75.50
51719;DHT22;37795;53.236;5.704;2023-05-15T02:45:11;10.10;75.60
51719;DHT22;37795;53.236;5.704;2023-05-15T02:47:38;10.10;76.00
51719;DHT22;37795;53.236;5.704;2023-05-15T02:50:05;10.00;76.00
51719;DHT22;37795;53.236;5.704;2023-05-15T02:52:32;10.00;76.10
51719;DHT22;37795;53.236;5.704;2023-05-15T02:54:59;10.00;75.70
51719;DHT22;37795;53.236;5.704;2023-05-15T02:57:25;10.00;75.40
51719;DHT22;37795;53.236;5.704;2023-05-15T02:59:53;10.10;75.00
51719;DHT22;37795;53.236;5.704;2023-05-15T03:02:19;10.10;74.90
51719;DHT22;37795;53.236;5.704;2023-05-15T03:04:45;10.10;74.50
51719;DHT22;37795;53.236;5.704;2023-05-15T03:07:10;10.20;74.80
51719;DHT22;37795;53.236;5.704;2023-05-15T03:09:36;10.10;74.70
51719;DHT22;37795;53.236;5.704;2023-05-15T03:12:02;10.00;74.90
51719;DHT22;37795;53.236;5.704;2023-05-15T03:14:27;10.10;75.20
51719;DHT22;37795;53.236;5.704;2023-05-15T03:16:53;10.10;75.30
51719;DHT22;37795;53.236;5.704;2023-05-15T03:19:19;10.20;75.20
51719;DHT22;37795;53.236;5.704;2023-05-15T03:21:44;10.30;75.20
51719;DHT22;37795;53.236;5.704;2023-05-15T03:24:10;10.30;75.20
51719;DHT22;37795;53.236;5.704;2023-05-15T03:26:36;10.40;75.10
51719;DHT22;37795;53.236;5.704;2023-05-15T03:29:02;10.20;74.90
51719;DHT22;37795;53.236;5.704;2023-05-15T03:31:27;10.20;75.00
51719;DHT22;37795;53.236;5.704;2023-05-15T03:33:53;10.10;75.30
51719;DHT22;37795;53.236;5.704;2023-05-15T03:36:19;10.10;75.80
51719;DHT22;37795;53.236;5.704;2023-05-15T03:38:44;10.10;76.10
51719;DHT22;37795;53.236;5.704;2023-05-15T03:41:10;10.00;76.20
51719;DHT22;37795;53.236;5.704;2023-05-15T03:43:36;10.00;76.50
51719;DHT22;37795;53.236;5.704;2023-05-15T03:46:01;9.90;76.60
51719;DHT22;37795;53.236;5.704;2023-05-15T03:48:27;9.70;76.70
51719;DHT22;37795;53.236;5.704;2023-05-15T03:50:52;9.60;77.00
51719;DHT22;37795;53.236;5.704;2023-05-15T03:53:18;9.60;77.20
51719;DHT22;37795;53.236;5.704;2023-05-15T03:55:44;9.50;77.40
51719;DHT22;37795;53.236;5.704;2023-05-15T03:58:10;9.50;77.60
51719;DHT22;37795;53.236;5.704;2023-05-15T04:00:35;9.50;77.70
51719;DHT22;37795;53.236;5.704;2023-05-15T04:03:01;9.50;77.80
51719;DHT22;37795;53.236;5.704;2023-05-15T04:05:27;9.50;77.80
51719;DHT22;37795;53.236;5.704;2023-05-15T04:07:52;9.50;78.00
51719;DHT22;37795;53.236;5.704;2023-05-15T04:10:18;9.50;78.10
51719;DHT22;37795;53.236;5.704;2023-05-15T04:12:44;9.50;78.20
51719;DHT22;37795;53.236;5.704;2023-05-15T04:17:42;9.60;78.30
51719;DHT22;37795;53.236;5.704;2023-05-15T04:20:09;9.50;78.10
51719;DHT22;37795;53.236;5.704;2023-05-15T04:22:36;9.50;78.20
51719;DHT22;37795;53.236;5.704;2023-05-15T04:25:02;9.40;78.20
51719;DHT22;37795;53.236;5.704;2023-05-15T04:27:29;9.60;78.60
51719;DHT22;37795;53.236;5.704;2023-05-15T04:29:54;9.70;78.60
51719;DHT22;37795;53.236;5.704;2023-05-15T04:32:20;9.70;78.50
51719;DHT22;37795;53.236;5.704;2023-05-15T04:34:46;9.80;78.50
51719;DHT22;37795;53.236;5.704;2023-05-15T04:37:12;9.80;78.40
51719;DHT22;37795;53.236;5.704;2023-05-15T04:39:37;9.90;78.20
51719;DHT22;37795;53.236;5.704;2023-05-15T04:42:03;10.00;77.90
51719;DHT22;37795;53.236;5.704;2023-05-15T04:44:29;10.10;77.90
51719;DHT22;37795;53.236;5.704;2023-05-15T04:46:55;10.10;77.90
51719;DHT22;37795;53.236;5.704;2023-05-15T04:49:20;10.10;78.10
51719;DHT22;37795;53.236;5.704;2023-05-15T04:51:46;10.30;78.10
51719;DHT22;37795;53.236;5.704;2023-05-15T04:54:12;10.40;78.00
51719;DHT22;37795;53.236;5.704;2023-05-15T04:56:38;10.60;77.70
51719;DHT22;37795;53.236;5.704;2023-05-15T04:59:03;10.70;77.30
51719;DHT22;37795;53.236;5.704;2023-05-15T05:01:29;10.80;77.00
51719;DHT22;37795;53.236;5.704;2023-05-15T05:03:55;11.00;76.60
51719;DHT22;37795;53.236;5.704;2023-05-15T05:06:22;11.10;76.40
51719;DHT22;37795;53.236;5.704;2023-05-15T05:08:48;11.30;76.20
51719;DHT22;37795;53.236;5.704;2023-05-15T05:11:13;11.50;76.00
51719;DHT22;37795;53.236;5.704;2023-05-15T05:13:39;11.70;75.50
51719;DHT22;37795;53.236;5.704;2023-05-15T05:16:05;11.80;75.00
51719;DHT22;37795;53.236;5.704;2023-05-15T05:18:31;12.00;74.80
51719;DHT22;37795;53.236;5.704;2023-05-15T05:21:00;12.00;74.20
51719;DHT22;37795;53.236;5.704;2023-05-15T05:23:26;12.10;73.90
51719;DHT22;37795;53.236;5.704;2023-05-15T05:25:52;12.30;73.60
51719;DHT22;37795;53.236;5.704;2023-05-15T05:28:18;12.30;73.50
51719;DHT22;37795;53.236;5.704;2023-05-15T05:30:47;12.30;73.40
51719;DHT22;37795;53.236;5.704;2023-05-15T05:33:13;12.30;73.40
51719;DHT22;37795;53.236;5.704;2023-05-15T05:35:38;12.40;73.20
51719;DHT22;37795;53.236;5.704;2023-05-15T05:38:04;12.50;73.30
51719;DHT22;37795;53.236;5.704;2023-05-15T05:40:30;12.60;73.20
51719;DHT22;37795;53.236;5.704;2023-05-15T05:43:01;12.60;73.00
51719;DHT22;37795;53.236;5.704;2023-05-15T05:45:27;12.60;72.90
51719;DHT22;37795;53.236;5.704;2023-05-15T05:47:56;12.60;72.90
51719;DHT22;37795;53.236;5.704;2023-05-15T05:50:22;12.60;72.70
51719;DHT22;37795;53.236;5.704;2023-05-15T05:52:48;12.60;72.40
51719;DHT22;37795;53.236;5.704;2023-05-15T05:55:14;12.60;72.40
51719;DHT22;37795;53.236;5.704;2023-05-15T05:57:40;12.60;72.20
51719;DHT22;37795;53.236;5.704;2023-05-15T06:00:06;12.70;72.10
51719;DHT22;37795;53.236;5.704;2023-05-15T06:02:36;12.70;72.10
51719;DHT22;37795;53.236;5.704;2023-05-15T06:05:03;12.80;71.90
51719;DHT22;37795;53.236;5.704;2023-05-15T06:07:29;12.80;71.90
51719;DHT22;37795;53.236;5.704;2023-05-15T06:09:54;12.80;71.80
51719;DHT22;37795;53.236;5.704;2023-05-15T06:12:21;12.80;71.80
51719;DHT22;37795;53.236;5.704;2023-05-15T06:14:47;12.90;71.70
51719;DHT22;37795;53.236;5.704;2023-05-15T06:17:12;12.90;71.80
51719;DHT22;37795;53.236;5.704;2023-05-15T06:19:38;13.00;71.30
51719;DHT22;37795;53.236;5.704;2023-05-15T06:22:04;13.00;71.30
51719;DHT22;37795;53.236;5.704;2023-05-15T06:24:30;13.00;71.10
51719;DHT22;37795;53.236;5.704;2023-05-15T06:26:55;12.90;71.00
51719;DHT22;37795;53.236;5.704;2023-05-15T06:29:21;12.90;71.40
51719;DHT22;37795;53.236;5.704;2023-05-15T06:31:47;12.90;71.50
51719;DHT22;37795;53.236;5.704;2023-05-15T06:34:13;13.00;71.70
51719;DHT22;37795;53.236;5.704;2023-05-15T06:36:38;13.00;71.40
51719;DHT22;37795;53.236;5.704;2023-05-15T06:39:04;13.00;70.90
51719;DHT22;37795;53.236;5.704;2023-05-15T06:41:31;13.00;70.80
51719;DHT22;37795;53.236;5.704;2023-05-15T06:43:57;13.00;70.90
51719;DHT22;37795;53.236;5.704;2023-05-15T06:46:24;13.00;70.70
51719;DHT22;37795;53.236;5.704;2023-05-15T06:56:17;13.60;69.90
51719;DHT22;37795;53.236;5.704;2023-05-15T06:58:43;13.10;70.70
51719;DHT22;37795;53.236;5.704;2023-05-15T07:01:09;13.10;70.60
51719;DHT22;37795;53.236;5.704;2023-05-15T07:03:34;13.20;70.40
51719;DHT22;37795;53.236;5.704;2023-05-15T07:06:00;13.20;70.30
51719;DHT22;37795;53.236;5.704;2023-05-15T07:08:26;13.40;70.10
51719;DHT22;37795;53.236;5.704;2023-05-15T07:10:52;13.50;69.50
51719;DHT22;37795;53.236;5.704;2023-05-15T07:13:19;13.40;69.50
51719;DHT22;37795;53.236;5.704;2023-05-15T07:15:45;13.60;69.30
51719;DHT22;37795;53.236;5.704;2023-05-15T07:18:11;13.70;69.30
51719;DHT22;37795;53.236;5.704;2023-05-15T07:20:37;13.80;69.40
51719;DHT22;37795;53.236;5.704;2023-05-15T07:23:03;13.80;68.70
51719;DHT22;37795;53.236;5.704;2023-05-15T07:25:29;14.10;68.40
51719;DHT22;37795;53.236;5.704;2023-05-15T07:27:55;14.40;68.20
51719;DHT22;37795;53.236;5.704;2023-05-15T07:30:21;14.40;66.90
51719;DHT22;37795;53.236;5.704;2023-05-15T07:32:47;14.60;67.50
51719;DHT22;37795;53.236;5.704;2023-05-15T07:35:13;14.60;66.80
51719;DHT22;37795;53.236;5.704;2023-05-15T07:37:39;14.70;67.10
51719;DHT22;37795;53.236;5.704;2023-05-15T07:40:06;14.60;66.70
51719;DHT22;37795;53.236;5.704;2023-05-15T07:42:32;14.60;66.80
51719;DHT22;37795;53.236;5.704;2023-05-15T07:44:57;14.60;66.90
51719;DHT22;37795;53.236;5.704;2023-05-15T07:47:23;14.60;67.20
51719;DHT22;37795;53.236;5.704;2023-05-15T07:49:48;14.50;67.10
51719;DHT22;37795;53.236;5.704;2023-05-15T07:52:14;14.60;67.50
51719;DHT22;37795;53.236;5.704;2023-05-15T07:54:40;14.50;67.40
51719;DHT22;37795;53.236;5.704;2023-05-15T07:57:07;14.60;67.30
51719;DHT22;37795;53.236;5.704;2023-05-15T07:59:34;14.50;66.50
51719;DHT22;37795;53.236;5.704;2023-05-15T08:02:00;14.40;67.40
51719;DHT22;37795;53.236;5.704;2023-05-15T08:04:26;14.50;67.30
51719;DHT22;37795;53.236;5.704;2023-05-15T08:06:51;14.50;66.90
51719;DHT22;37795;53.236;5.704;2023-05-15T08:09:17;14.50;67.30
51719;DHT22;37795;53.236;5.704;2023-05-15T08:11:43;14.60;67.50
51719;DHT22;37795;53.236;5.704;2023-05-15T08:14:09;14.60;66.90
51719;DHT22;37795;53.236;5.704;2023-05-15T08:16:35;14.60;67.30
51719;DHT22;37795;53.236;5.704;2023-05-15T08:19:00;14.80;66.90
51719;DHT22;37795;53.236;5.704;2023-05-15T08:21:30;14.70;66.40
51719;DHT22;37795;53.236;5.704;2023-05-15T08:23:57;14.80;66.20
51719;DHT22;37795;53.236;5.704;2023-05-15T08:26:23;14.80;66.50
51719;DHT22;37795;53.236;5.704;2023-05-15T08:28:48;14.80;66.20
51719;DHT22;37795;53.236;5.704;2023-05-15T08:31:14;14.80;66.20
51719;DHT22;37795;53.236;5.704;2023-05-15T08:33:40;14.70;66.70
51719;DHT22;37795;53.236;5.704;2023-05-15T08:36:06;14.70;66.70
51719;DHT22;37795;53.236;5.704;2023-05-15T08:38:32;14.60;67.20
51719;DHT22;37795;53.236;5.704;2023-05-15T08:41:05;14.60;67.10
51719;DHT22;37795;53.236;5.704;2023-05-15T08:43:33;14.50;67.40
51719;DHT22;37795;53.236;5.704;2023-05-15T08:46:01;14.50;67.70
51719;DHT22;37795;53.236;5.704;2023-05-15T08:48:28;14.40;67.70
51719;DHT22;37795;53.236;5.704;2023-05-15T08:50:54;14.50;67.70
51719;DHT22;37795;53.236;5.704;2023-05-15T08:53:22;14.50;67.90
51719;DHT22;37795;53.236;5.704;2023-05-15T08:55:48;14.40;67.80
51719;DHT22;37795;53.236;5.704;2023-05-15T08:58:15;14.40;67.60
51719;DHT22;37795;53.236;5.704;2023-05-15T09:00:47;14.30;67.80
51719;DHT22;37795;53.236;5.704;2023-05-15T09:03:14;14.40;67.80
51719;DHT22;37795;53.236;5.704;2023-05-15T09:05:40;14.40;67.90
51719;DHT22;37795;53.236;5.704;2023-05-15T09:08:07;14.40;67.50
51719;DHT22;37795;53.236;5.704;2023-05-15T09:10:33;14.50;67.70
51719;DHT22;37795;53.236;5.704;2023-05-15T09:13:01;14.50;67.60
51719;DHT22;37795;53.236;5.704;2023-05-15T09:15:27;14.30;67.20
51719;DHT22;37795;53.236;5.704;2023-05-15T09:17:55;14.40;67.90
51719;DHT22;37795;53.236;5.704;2023-05-15T09:20:28;14.40;67.40
51719;DHT22;37795;53.236;5.704;2023-05-15T09:22:55;14.30;68.80
51719;DHT22;37795;53.236;5.704;2023-05-15T09:25:41;14.40;68.10
51719;DHT22;37795;53.236;5.704;2023-05-15T09:28:23;14.50;68.00
51719;DHT22;37795;53.236;5.704;2023-05-15T09:30:56;14.50;67.80
51719;DHT22;37795;53.236;5.704;2023-05-15T09:33:30;14.60;67.80
51719;DHT22;37795;53.236;5.704;2023-05-15T09:35:56;14.60;67.40
51719;DHT22;37795;53.236;5.704;2023-05-15T09:38:22;14.50;67.40
51719;DHT22;37795;53.236;5.704;2023-05-15T09:40:48;14.50;67.10
51719;DHT22;37795;53.236;5.704;2023-05-15T09:43:15;14.50;68.00
51719;DHT22;37795;53.236;5.704;2023-05-15T09:45:40;14.40;67.00
51719;DHT22;37795;53.236;5.704;2023-05-15T09:48:07;14.50;67.40
51719;DHT22;37795;53.236;5.704;2023-05-15T09:50:37;14.50;68.30
51719;DHT22;37795;53.236;5.704;2023-05-15T09:53:04;14.60;67.80
51719;DHT22;37795;53.236;5.704;2023-05-15T09:55:33;14.70;67.60
51719;DHT22;37795;53.236;5.704;2023-05-15T09:58:10;14.60;68.10
51719;DHT22;37795;53.236;5.704;2023-05-15T10:00:37;14.70;67.60
51719;DHT22;37795;53.236;5.704;2023-05-15T10:03:04;14.70;67.10
51719;DHT22;37795;53.236;5.704;2023-05-15T10:05:31;14.80;67.20
51719;DHT22;37795;53.236;5.704;2023-05-15T10:07:57;14.90;67.20
51719;DHT22;37795;53.236;5.704;2023-05-15T10:10:24;14.90;67.20
51719;DHT22;37795;53.236;5.704;2023-05-15T10:12:52;14.90;66.90
51719;DHT22;37795;53.236;5.704;2023-05-15T10:15:19;14.90;67.20
51719;DHT22;37795;53.236;5.704;2023-05-15T10:17:51;15.00;67.10
51719;DHT22;37795;53.236;5.704;2023-05-15T10:20:18;15.00;66.90
51719;DHT22;37795;53.236;5.704;2023-05-15T10:22:48;14.90;67.20
51719;DHT22;37795;53.236;5.704;2023-05-15T10:27:57;15.10;66.50
51719;DHT22;37795;53.236;5.704;2023-05-15T10:30:23;15.10;66.40
51719;DHT22;37795;53.236;5.704;2023-05-15T10:32:50;15.00;66.50
51719;DHT22;37795;53.236;5.704;2023-05-15T10:35:17;15.10;66.80
51719;DHT22;37795;53.236;5.704;2023-05-15T10:37:46;15.00;66.80
51719;DHT22;37795;53.236;5.704;2023-05-15T10:40:15;14.90;66.80
51719;DHT22;37795;53.236;5.704;2023-05-15T10:42:45;15.00;66.80
51719;DHT22;37795;53.236;5.704;2023-05-15T10:45:12;14.80;66.80
51719;DHT22;37795;53.236;5.704;2023-05-15T10:47:39;14.80;67.10
51719;DHT22;37795;53.236;5.704;2023-05-15T10:56:17;15.40;66.80
51719;DHT22;37795;53.236;5.704;2023-05-15T10:58:44;15.00;66.40
51719;DHT22;37795;53.236;5.704;2023-05-15T11:01:27;15.20;66.50
51719;DHT22;37795;53.236;5.704;2023-05-15T11:04:14;15.20;65.80
51719;DHT22;37795;53.236;5.704;2023-05-15T11:06:44;15.10;65.60
51719;DHT22;37795;53.236;5.704;2023-05-15T11:14:20;14.70;67.90
51719;DHT22;37795;53.236;5.704;2023-05-15T11:19:21;15.00;67.10
51719;DHT22;37795;53.236;5.704;2023-05-15T11:21:47;15.20;68.00
51719;DHT22;37795;53.236;5.704;2023-05-15T11:24:12;15.30;67.00
51719;DHT22;37795;53.236;5.704;2023-05-15T11:26:41;15.40;67.10
51719;DHT22;37795;53.236;5.704;2023-05-15T11:29:17;15.50;66.70
51719;DHT22;37795;53.236;5.704;2023-05-15T11:31:43;15.50;66.10
51719;DHT22;37795;53.236;5.704;2023-05-15T11:34:09;15.60;66.30
51719;DHT22;37795;53.236;5.704;2023-05-15T11:36:38;15.60;66.50
51719;DHT22;37795;53.236;5.704;2023-05-15T11:39:13;15.60;66.30
51719;DHT22;37795;53.236;5.704;2023-05-15T11:41:39;15.70;65.80
51719;DHT22;37795;53.236;5.704;2023-05-15T11:44:05;15.60;65.90
51719;DHT22;37795;53.236;5.704;2023-05-15T11:46:32;15.60;66.00
51719;DHT22;37795;53.236;5.704;2023-05-15T11:48:57;15.50;65.70
51719;DHT22;37795;53.236;5.704;2023-05-15T11:51:24;15.40;66.70
51719;DHT22;37795;53.236;5.704;2023-05-15T11:53:53;15.30;66.20
51719;DHT22;37795;53.236;5.704;2023-05-15T11:56:20;15.10;66.30
51719;DHT22;37795;53.236;5.704;2023-05-15T11:58:52;15.10;67.70
51719;DHT22;37795;53.236;5.704;2023-05-15T12:01:18;14.90;66.60
51719;DHT22;37795;53.236;5.704;2023-05-15T12:03:46;15.00;68.40
51719;DHT22;37795;53.236;5.704;2023-05-15T12:06:13;15.00;68.00
51719;DHT22;37795;53.236;5.704;2023-05-15T12:08:39;15.10;68.10
51719;DHT22;37795;53.236;5.704;2023-05-15T12:11:06;15.00;68.00
51719;DHT22;37795;53.236;5.704;2023-05-15T12:13:33;14.90;68.20
51719;DHT22;37795;53.236;5.704;2023-05-15T12:16:00;15.10;68.00
51719;DHT22;37795;53.236;5.704;2023-05-15T12:18:26;15.10;67.70
51719;DHT22;37795;53.236;5.704;2023-05-15T12:20:52;15.20;68.30
51719;DHT22;37795;53.236;5.704;2023-05-15T12:23:20;15.20;67.90
51719;DHT22;37795;53.236;5.704;2023-05-15T12:25:47;15.20;67.90
51719;DHT22;37795;53.236;5.704;2023-05-15T12:28:14;15.30;67.90
51719;DHT22;37795;53.236;5.704;2023-05-15T12:30:41;15.20;67.50
51719;DHT22;37795;53.236;5.704;2023-05-15T12:33:07;15.10;67.50
51719;DHT22;37795;53.236;5.704;2023-05-15T12:35:48;15.10;67.70
51719;DHT22;37795;53.236;5.704;2023-05-15T12:38:14;15.10;68.40
51719;DHT22;37795;53.236;5.704;2023-05-15T12:40:41;15.20;68.50
51719;DHT22;37795;53.236;5.704;2023-05-15T12:43:08;15.20;68.30
51719;DHT22;37795;53.236;5.704;2023-05-15T12:45:37;15.10;67.70
51719;DHT22;37795;53.236;5.704;2023-05-15T12:48:04;15.10;68.20
51719;DHT22;37795;53.236;5.704;2023-05-15T12:50:33;15.20;68.20
51719;DHT22;37795;53.236;5.704;2023-05-15T12:53:03;15.20;67.80
51719;DHT22;37795;53.236;5.704;2023-05-15T12:55:31;15.20;67.10
51719;DHT22;37795;53.236;5.704;2023-05-15T12:58:08;15.10;67.90
51719;DHT22;37795;53.236;5.704;2023-05-15T13:00:35;15.10;67.70
51719;DHT22;37795;53.236;5.704;2023-05-15T13:03:02;15.00;68.10
51719;DHT22;37795;53.236;5.704;2023-05-15T13:05:31;15.00;68.10
51719;DHT22;37795;53.236;5.704;2023-05-15T13:07:58;15.00;68.20
51719;DHT22;37795;53.236;5.704;2023-05-15T13:10:24;15.10;68.10
51719;DHT22;37795;53.236;5.704;2023-05-15T13:12:55;15.20;68.50
51719;DHT22;37795;53.236;5.704;2023-05-15T13:15:24;15.30;67.80
51719;DHT22;37795;53.236;5.704;2023-05-15T13:18:00;15.20;67.60
51719;DHT22;37795;53.236;5.704;2023-05-15T13:20:37;15.20;67.40
51719;DHT22;37795;53.236;5.704;2023-05-15T13:23:03;15.30;67.80
51719;DHT22;37795;53.236;5.704;2023-05-15T13:25:29;15.40;67.40
51719;DHT22;37795;53.236;5.704;2023-05-15T13:28:00;15.40;66.70
51719;DHT22;37795;53.236;5.704;2023-05-15T13:30:27;15.40;67.10
51719;DHT22;37795;53.236;5.704;2023-05-15T13:32:53;15.30;66.70
51719;DHT22;37795;53.236;5.704;2023-05-15T13:35:18;15.30;67.50
51719;DHT22;37795;53.236;5.704;2023-05-15T13:37:44;15.20;66.90
51719;DHT22;37795;53.236;5.704;2023-05-15T13:40:11;15.10;67.50
51719;DHT22;37795;53.236;5.704;2023-05-15T13:42:37;15.20;67.70
51719;DHT22;37795;53.236;5.704;2023-05-15T13:45:08;15.10;67.80
51719;DHT22;37795;53.236;5.704;2023-05-15T13:47:34;15.10;68.10
51719;DHT22;37795;53.236;5.704;2023-05-15T13:50:00;15.20;68.10
51719;DHT22;37795;53.236;5.704;2023-05-15T13:52:26;15.20;68.30
51719;DHT22;37795;53.236;5.704;2023-05-15T13:54:53;15.20;68.60
51719;DHT22;37795;53.236;5.704;2023-05-15T13:57:20;15.20;68.30
51719;DHT22;37795;53.236;5.704;2023-05-15T13:59:46;15.10;68.30
51719;DHT22;37795;53.236;5.704;2023-05-15T14:02:11;15.10;68.40
51719;DHT22;37795;53.236;5.704;2023-05-15T14:04:37;15.10;68.40
51719;DHT22;37795;53.236;5.704;2023-05-15T14:07:03;15.00;68.50
51719;DHT22;37795;53.236;5.704;2023-05-15T14:09:29;15.00;68.80
51719;DHT22;37795;53.236;5.704;2023-05-15T14:11:54;15.00;68.90
51719;DHT22;37795;53.236;5.704;2023-05-15T14:14:20;15.00;68.60
51719;DHT22;37795;53.236;5.704;2023-05-15T14:16:46;15.00;68.30
51719;DHT22;37795;53.236;5.704;2023-05-15T14:19:12;15.10;67.60
51719;DHT22;37795;53.236;5.704;2023-05-15T14:21:38;15.10;68.20
51719;DHT22;37795;53.236;5.704;2023-05-15T14:24:04;15.10;68.20
51719;DHT22;37795;53.236;5.704;2023-05-15T14:26:30;15.00;67.60
51719;DHT22;37795;53.236;5.704;2023-05-15T14:28:57;15.00;68.50
51719;DHT22;37795;53.236;5.704;2023-05-15T14:31:22;15.00;68.50
51719;DHT22;37795;53.236;5.704;2023-05-15T14:33:48;15.10;68.00
51719;DHT22;37795;53.236;5.704;2023-05-15T14:36:14;15.20;67.80
51719;DHT22;37795;53.236;5.704;2023-05-15T14:38:40;15.20;67.60
51719;DHT22;37795;53.236;5.704;2023-05-15T14:41:10;15.30;67.50
51719;DHT22;37795;53.236;5.704;2023-05-15T14:43:36;15.30;67.20
51719;DHT22;37795;53.236;5.704;2023-05-15T14:46:02;15.40;67.00
51719;DHT22;37795;53.236;5.704;2023-05-15T14:48:27;15.50;66.80
51719;DHT22;37795;53.236;5.704;2023-05-15T14:50:55;15.60;66.50
51719;DHT22;37795;53.236;5.704;2023-05-15T14:53:20;15.60;66.40
51719;DHT22;37795;53.236;5.704;2023-05-15T14:55:46;15.70;66.10
51719;DHT22;37795;53.236;5.704;2023-05-15T14:58:12;15.60;65.50
51719;DHT22;37795;53.236;5.704;2023-05-15T15:00:38;15.50;65.90
51719;DHT22;37795;53.236;5.704;2023-05-15T15:03:04;15.50;66.10
51719;DHT22;37795;53.236;5.704;2023-05-15T15:05:30;15.40;66.00
51719;DHT22;37795;53.236;5.704;2023-05-15T15:10:24;15.30;65.60
51719;DHT22;37795;53.236;5.704;2023-05-15T15:12:50;15.40;66.10
51719;DHT22;37795;53.236;5.704;2023-05-15T15:15:16;15.40;65.40
51719;DHT22;37795;53.236;5.704;2023-05-15T15:17:42;15.40;65.80
51719;DHT22;37795;53.236;5.704;2023-05-15T15:20:08;15.40;65.80
51719;DHT22;37795;53.236;5.704;2023-05-15T15:22:34;15.40;66.10
51719;DHT22;37795;53.236;5.704;2023-05-15T15:25:00;15.40;66.20
51719;DHT22;37795;53.236;5.704;2023-05-15T15:27:26;15.30;66.00
51719;DHT22;37795;53.236;5.704;2023-05-15T15:29:52;15.30;66.20
51719;DHT22;37795;53.236;5.704;2023-05-15T15:32:18;15.30;66.20
51719;DHT22;37795;53.236;5.704;2023-05-15T15:34:43;15.30;66.40
51719;DHT22;37795;53.236;5.704;2023-05-15T15:37:09;15.20;66.50
51719;DHT22;37795;53.236;5.704;2023-05-15T15:39:35;15.20;66.50
51719;DHT22;37795;53.236;5.704;2023-05-15T15:42:01;15.10;66.50
51719;DHT22;37795;53.236;5.704;2023-05-15T15:44:27;15.00;67.60
51719;DHT22;37795;53.236;5.704;2023-05-15T15:46:53;15.00;67.80
51719;DHT22;37795;53.236;5.704;2023-05-15T15:49:18;14.90;67.50
51719;DHT22;37795;53.236;5.704;2023-05-15T15:51:44;14.90;67.40
51719;DHT22;37795;53.236;5.704;2023-05-15T15:54:10;14.80;67.60
51719;DHT22;37795;53.236;5.704;2023-05-15T15:56:36;14.80;67.80
51719;DHT22;37795;53.236;5.704;2023-05-15T15:59:02;14.80;67.70
51719;DHT22;37795;53.236;5.704;2023-05-15T16:01:28;14.70;67.80
51719;DHT22;37795;53.236;5.704;2023-05-15T16:03:53;14.60;67.90
51719;DHT22;37795;53.236;5.704;2023-05-15T16:06:19;14.60;68.20
51719;DHT22;37795;53.236;5.704;2023-05-15T16:08:45;14.60;68.20
51719;DHT22;37795;53.236;5.704;2023-05-15T16:11:11;14.60;68.30
51719;DHT22;37795;53.236;5.704;2023-05-15T16:13:36;14.50;68.30
51719;DHT22;37795;53.236;5.704;2023-05-15T16:16:02;14.40;68.40